Time;durP1;ratioP1;P1;durP2;ratioP2;P2;SDS_P1;SDS_P2;PMS_P1;PMS_P2;Temp;Humidity;BMP_temperature;BMP_pressure;BME280_temperature;BME280_humidity;BME280_pressure;Samples;Min_cycle;Max_cycle;Signal;HPM_P1;HPM_P2
2021/03/19 00:00:07;;;;;;;26.17;11.68;;;-0.20;99.90;;;;;;4905760;28;20089;-80
2021/03/19 00:02:29;;;;;;;21.75;11.15;;;-0.20;99.90;;;;;;4904273;28;20093;-80
2021/03/19 00:04:52;;;;;;;23.05;10.90;;;-0.10;99.90;;;;;;4892230;28;20096;-79
2021/03/19 00:07:16;;;;;;;23.25;10.95;;;-0.10;99.90;;;;;;4890460;28;20163;-78
2021/03/19 00:09:40;;;;;;;24.85;11.07;;;;;;;;;;4905797;28;20095;-80
2021/03/19 00:12:04;;;;;;;23.85;9.90;;;-0.30;99.90;;;;;;4893063;28;20560;-79
2021/03/19 00:14:26;;;;;;;21.20;10.25;;;-0.40;99.90;;;;;;4901646;28;20097;-80
2021/03/19 00:16:49;;;;;;;22.27;10.23;;;-0.50;99.90;;;;;;4905792;28;20497;-80
2021/03/19 00:19:14;;;;;;;24.25;9.75;;;-0.70;99.90;;;;;;4906690;28;21289;-79
2021/03/19 00:21:37;;;;;;;18.77;9.77;;;-0.80;99.90;;;;;;4904434;28;20554;-80
2021/03/19 00:24:00;;;;;;;23.17;10.40;;;-1.00;99.90;;;;;;4904613;28;20526;-80
2021/03/19 00:26:24;;;;;;;18.00;9.10;;;;;;;;;;4904708;28;20087;-80
2021/03/19 00:28:47;;;;;;;19.10;10.02;;;-1.20;99.90;;;;;;4904677;28;20096;-80
2021/03/19 00:31:10;;;;;;;20.40;9.73;;;-1.30;99.90;;;;;;4892270;28;20114;-79
2021/03/19 00:33:33;;;;;;;19.20;9.93;;;-1.30;99.90;;;;;;4905860;28;20100;-80
2021/03/19 00:35:56;;;;;;;22.38;9.45;;;-1.20;99.90;;;;;;4897761;28;20462;-81
2021/03/19 00:38:19;;;;;;;23.20;9.45;;;-1.20;99.90;;;;;;4901730;28;20094;-80
2021/03/19 00:40:44;;;;;;;21.73;10.10;;;-1.20;99.90;;;;;;4904766;28;20502;-79
2021/03/19 00:43:11;;;;;;;18.45;10.07;;;-1.30;99.90;;;;;;4905691;28;20095;-80
2021/03/19 00:45:35;;;;;;;17.65;8.98;;;-1.30;99.90;;;;;;4905606;28;20081;-80
2021/03/19 00:47:58;;;;;;;22.42;10.13;;;-1.40;99.90;;;;;;4904313;28;20097;-80
2021/03/19 00:50:26;;;;;;;22.48;9.05;;;-1.50;99.90;;;;;;4904692;28;20117;-81
2021/03/19 00:52:51;;;;;;;21.70;9.88;;;;;;;;;;4900642;28;20103;-81
2021/03/19 00:55:15;;;;;;;21.88;9.55;;;-1.50;99.90;;;;;;4905189;28;20138;-80
2021/03/19 00:57:37;;;;;;;21.65;9.18;;;-1.50;99.90;;;;;;4904021;28;20095;-80
2021/03/19 01:00:01;;;;;;;25.60;9.73;;;-1.50;99.90;;;;;;4905228;28;20091;-81
2021/03/19 01:02:24;;;;;;;20.20;9.55;;;-1.40;99.90;;;;;;4905590;28;20167;-80
2021/03/19 01:04:47;;;;;;;23.05;10.73;;;-1.40;99.90;;;;;;4895884;28;20143;-80
2021/03/19 01:07:10;;;;;;;23.50;10.35;;;-1.40;99.90;;;;;;4904886;28;20095;-80
2021/03/19 01:09:33;;;;;;;25.60;10.73;;;-1.40;99.90;;;;;;4905793;28;20417;-80
2021/03/19 01:11:55;;;;;;;22.38;10.13;;;-1.30;99.90;;;;;;4906181;28;20093;-80
2021/03/19 01:14:18;;;;;;;21.38;9.68;;;-1.30;99.90;;;;;;4904921;28;20094;-81
2021/03/19 01:16:43;;;;;;;21.77;10.82;;;-1.30;99.90;;;;;;4907423;28;20091;-81
2021/03/19 01:19:05;;;;;;;28.73;9.93;;;-1.20;99.90;;;;;;4906349;28;20169;-81
2021/03/19 01:21:28;;;;;;;21.65;10.43;;;-1.20;99.90;;;;;;4907556;28;20167;-80
2021/03/19 01:23:51;;;;;;;28.98;10.98;;;-1.10;99.90;;;;;;4907279;28;20180;-80
2021/03/19 01:26:14;;;;;;;19.98;9.90;;;-1.10;99.90;;;;;;4908350;28;20097;-80
2021/03/19 01:28:37;;;;;;;22.60;10.35;;;-1.10;99.90;;;;;;4906473;28;20091;-80
2021/03/19 01:31:07;;;;;;;20.08;10.07;;;-1.00;99.90;;;;;;4907094;28;20097;-80
2021/03/19 01:33:31;;;;;;;24.35;10.65;;;-1.00;99.90;;;;;;4906837;28;20142;-80
2021/03/19 01:35:54;;;;;;;25.98;10.52;;;-0.90;99.90;;;;;;4909311;28;20087;-80
2021/03/19 01:38:16;;;;;;;24.27;10.70;;;-0.90;99.90;;;;;;4906232;28;20105;-80
2021/03/19 01:40:42;;;;;;;23.73;10.98;;;-1.00;99.90;;;;;;4904365;28;20093;-80
2021/03/19 01:43:09;;;;;;;25.98;11.25;;;-1.10;99.90;;;;;;4908617;28;20101;-80
2021/03/19 01:46:17;;;;;;;21.88;10.50;;;-1.20;99.90;;;;;;4908785;28;20095;-80
2021/03/19 01:49:16;;;;;;;20.30;9.32;;;-1.20;99.90;;;;;;4905799;28;20077;-80
2021/03/19 01:52:16;;;;;;;25.73;11.18;;;-1.30;99.90;;;;;;4906983;28;20178;-80
2021/03/19 01:55:15;;;;;;;20.73;10.10;;;-1.30;99.90;;;;;;4905063;28;20515;-80
2021/03/19 01:58:15;;;;;;;21.52;10.02;;;-1.20;99.90;;;;;;4904851;28;20087;-79
2021/03/19 02:01:15;;;;;;;20.30;9.80;;;-1.20;99.90;;;;;;4904049;28;20112;-79
2021/03/19 02:04:16;;;;;;;23.92;10.15;;;-1.10;99.90;;;;;;4897884;28;20524;-80
2021/03/19 02:07:15;;;;;;;25.05;11.10;;;-1.10;99.90;;;;;;4905743;28;20178;-81
2021/03/19 02:10:15;;;;;;;18.27;9.45;;;-1.00;99.90;;;;;;4905861;28;20097;-81
2021/03/19 02:13:15;;;;;;;21.55;9.68;;;-1.00;99.90;;;;;;4904896;28;20095;-80
2021/03/19 02:16:15;;;;;;;21.27;9.88;;;-1.10;99.90;;;;;;4904776;28;20092;-81
2021/03/19 02:19:15;;;;;;;21.90;10.02;;;-1.10;99.90;;;;;;4904747;28;20085;-80
2021/03/19 02:22:15;;;;;;;24.95;10.20;;;-1.00;99.90;;;;;;4893121;28;20191;-80
2021/03/19 02:25:15;;;;;;;23.95;10.25;;;-1.10;99.90;;;;;;4907469;28;20095;-80
2021/03/19 02:28:18;;;;;;;22.23;10.20;;;-1.10;99.90;;;;;;4906868;28;20116;-81
2021/03/19 02:31:12;;;;;;;19.42;9.77;;;-1.20;99.90;;;;;;4903947;28;20090;-81
2021/03/19 02:33:38;;;;;;;21.95;9.65;;;-1.30;99.90;;;;;;4908450;28;20168;-80
2021/03/19 02:36:03;;;;;;;22.42;9.88;;;-1.30;99.90;;;;;;4908564;28;20087;-80
2021/03/19 02:38:26;;;;;;;23.27;11.33;;;-1.30;99.90;;;;;;4899224;28;20087;-80
2021/03/19 02:40:54;;;;;;;25.92;10.48;;;-1.30;99.90;;;;;;4905576;28;20496;-80
2021/03/19 02:43:18;;;;;;;21.77;9.63;;;-1.30;99.90;;;;;;4908848;28;20090;-80
2021/03/19 02:45:41;;;;;;;27.15;9.85;;;-1.30;99.90;;;;;;4908538;28;20089;-81
2021/03/19 02:48:06;;;;;;;22.25;9.38;;;-1.20;99.90;;;;;;4907180;28;20099;-80
2021/03/19 02:50:29;;;;;;;23.88;10.50;;;;;;;;;;4907844;28;20102;-80
2021/03/19 02:52:52;;;;;;;26.75;10.25;;;-1.10;99.90;;;;;;4905731;28;20503;-79
2021/03/19 02:55:18;;;;;;;26.40;9.93;;;-1.10;99.90;;;;;;4908888;28;20096;-80
2021/03/19 02:57:41;;;;;;;29.65;11.15;;;-1.10;99.90;;;;;;4907946;28;20088;-81
2021/03/19 03:00:05;;;;;;;29.10;11.52;;;-1.10;99.90;;;;;;4907790;28;20097;-80
2021/03/19 03:02:28;;;;;;;28.05;11.50;;;-1.10;99.90;;;;;;4908672;28;20184;-81
2021/03/19 03:04:51;;;;;;;24.55;10.63;;;-1.00;99.90;;;;;;4908913;28;20633;-80
2021/03/19 03:07:23;;;;;;;24.90;11.45;;;-1.00;99.90;;;;;;4907432;28;20084;-80
2021/03/19 03:09:45;;;;;;;23.05;11.20;;;-1.10;99.90;;;;;;4907959;28;20098;-80
2021/03/19 03:12:08;;;;;;;26.25;11.55;;;-1.10;99.90;;;;;;4909470;28;20091;-80
2021/03/19 03:14:32;;;;;;;26.92;11.90;;;-1.10;99.90;;;;;;4898281;28;20172;-80
2021/03/19 03:16:58;;;;;;;34.40;11.40;;;-1.10;99.90;;;;;;4907714;28;20497;-80
2021/03/19 03:19:23;;;;;;;35.95;13.48;;;-1.10;99.90;;;;;;4905132;28;20478;-81
2021/03/19 03:21:46;;;;;;;29.33;12.50;;;-1.00;99.90;;;;;;4908930;28;20441;-81
2021/03/19 03:24:12;;;;;;;26.60;12.38;;;-1.00;99.90;;;;;;4907480;28;20090;-81
2021/03/19 03:26:36;;;;;;;33.13;11.75;;;-1.00;99.90;;;;;;4906920;28;20118;-81
2021/03/19 03:29:00;;;;;;;30.65;13.05;;;-1.00;99.90;;;;;;4908581;28;22596;-80
2021/03/19 03:31:23;;;;;;;38.63;12.98;;;-1.00;99.90;;;;;;4907679;28;20267;-80
2021/03/19 03:33:47;;;;;;;37.80;12.98;;;-0.90;99.90;;;;;;4907253;28;20557;-81
2021/03/19 03:36:09;;;;;;;33.50;12.80;;;-0.90;99.90;;;;;;4898867;28;20183;-81
2021/03/19 03:38:32;;;;;;;36.22;13.18;;;-0.90;99.90;;;;;;4905829;28;20464;-81
2021/03/19 03:41:01;;;;;;;34.28;13.40;;;-0.80;99.90;;;;;;4904457;28;20495;-80
2021/03/19 03:43:26;;;;;;;38.17;14.48;;;-0.70;99.90;;;;;;4905812;28;20886;-80
2021/03/19 03:45:51;;;;;;;42.95;15.52;;;-0.70;99.90;;;;;;4908084;28;20097;-80
2021/03/19 03:48:16;;;;;;;43.15;15.10;;;-0.80;99.90;;;;;;4905740;28;20093;-80
2021/03/19 03:50:40;;;;;;;39.90;15.00;;;;;;;;;;4906850;28;20090;-80
2021/03/19 03:53:04;;;;;;;34.83;15.85;;;-0.80;99.90;;;;;;4907993;28;20171;-80
2021/03/19 03:55:27;;;;;;;41.70;16.38;;;-0.80;99.90;;;;;;4906808;28;25509;-81
2021/03/19 03:57:51;;;;;;;36.55;15.70;;;-0.80;99.90;;;;;;4907627;28;20097;-81
2021/03/19 04:00:17;;;;;;;33.83;14.45;;;-0.90;99.90;;;;;;4906483;28;20608;-81
2021/03/19 04:02:40;;;;;;;35.70;14.02;;;-0.90;99.90;;;;;;4908339;28;20095;-80
2021/03/19 04:05:07;;;;;;;32.42;14.35;;;-0.90;99.90;;;;;;4908053;28;20093;-80
2021/03/19 04:07:29;;;;;;;35.28;13.82;;;-1.00;99.90;;;;;;4904516;28;20085;-81
2021/03/19 04:09:52;;;;;;;32.03;14.68;;;-1.10;99.90;;;;;;4908476;28;20087;-81
2021/03/19 04:12:17;;;;;;;34.17;13.93;;;-1.10;99.90;;;;;;4906880;28;20183;-81
2021/03/19 04:14:41;;;;;;;30.45;13.65;;;-1.10;99.90;;;;;;4905949;28;20095;-81
2021/03/19 04:17:09;;;;;;;32.92;13.82;;;-1.00;99.90;;;;;;4907266;28;20181;-80
2021/03/19 04:19:32;;;;;;;31.90;13.48;;;-1.00;99.90;;;;;;4903156;28;20169;-80
2021/03/19 04:21:57;;;;;;;40.28;14.68;;;;;;;;;;4905772;28;20188;-81
2021/03/19 04:24:20;;;;;;;38.17;14.93;;;-0.90;99.90;;;;;;4904340;28;20168;-80
2021/03/19 04:26:43;;;;;;;38.90;17.05;;;-0.80;99.90;;;;;;4904935;28;20084;-80
2021/03/19 04:29:06;;;;;;;37.13;16.65;;;-0.80;99.90;;;;;;4906859;28;20097;-81
2021/03/19 04:31:30;;;;;;;39.10;16.70;;;-0.70;99.90;;;;;;4905583;28;20105;-81
2021/03/19 04:33:53;;;;;;;48.55;18.23;;;-0.60;99.90;;;;;;4907279;28;20519;-81
2021/03/19 04:36:29;;;;;;;42.75;17.52;;;-0.60;99.90;;;;;;4907932;28;20121;-81
2021/03/19 04:38:55;;;;;;;43.15;17.13;;;-0.60;99.90;;;;;;4907203;28;20127;-80
2021/03/19 04:41:18;;;;;;;52.10;18.50;;;-0.60;99.90;;;;;;4905483;28;21514;-80
2021/03/19 04:43:41;;;;;;;46.33;17.10;;;-0.80;99.90;;;;;;4907702;28;20275;-80
2021/03/19 04:46:04;;;;;;;54.75;17.65;;;-0.90;99.90;;;;;;4904878;28;20096;-80
2021/03/19 04:48:28;;;;;;;44.42;17.23;;;-1.00;99.90;;;;;;4906730;28;20118;-80
2021/03/19 04:50:52;;;;;;;42.25;17.15;;;-0.90;99.90;;;;;;4907723;28;20177;-81
2021/03/19 04:53:14;;;;;;;49.13;17.33;;;-0.90;99.90;;;;;;4909749;28;20553;-80
2021/03/19 04:55:38;;;;;;;44.78;16.40;;;-0.90;99.90;;;;;;4910975;28;20123;-80
2021/03/19 04:58:01;;;;;;;43.17;16.65;;;-0.70;99.90;;;;;;4908742;28;20108;-80
2021/03/19 05:00:24;;;;;;;41.25;16.67;;;-0.50;99.90;;;;;;4910447;28;20091;-80
2021/03/19 05:02:49;;;;;;;48.28;16.13;;;-0.40;99.90;;;;;;4908821;28;20091;-80
2021/03/19 05:05:17;;;;;;;44.50;16.43;;;-0.20;99.90;;;;;;4911090;28;20136;-80
2021/03/19 05:07:40;;;;;;;43.45;16.13;;;0.10;99.90;;;;;;4905398;28;20529;-79
2021/03/19 05:10:05;;;;;;;35.33;13.32;;;0.40;99.90;;;;;;4911146;28;20098;-83
2021/03/19 05:12:28;;;;;;;19.00;8.00;;;0.40;99.90;;;;;;4909858;28;20095;-83
2021/03/19 05:14:51;;;;;;;13.52;5.35;;;0.50;99.90;;;;;;4902281;28;20528;-82
2021/03/19 05:17:14;;;;;;;5.47;2.60;;;0.50;99.90;;;;;;4909265;28;20182;-81
2021/03/19 05:19:37;;;;;;;1.80;0.90;;;0.60;99.90;;;;;;4910396;28;20097;-82
2021/03/19 05:22:00;;;;;;;4.57;1.63;;;0.60;99.90;;;;;;4908569;28;20095;-81
2021/03/19 05:24:23;;;;;;;3.80;1.35;;;0.60;99.90;;;;;;4911242;28;20535;-83
2021/03/19 05:26:46;;;;;;;2.47;0.95;;;0.60;99.90;;;;;;4906711;28;20112;-82
2021/03/19 05:29:09;;;;;;;2.60;1.27;;;;;;;;;;4909738;28;20175;-82
2021/03/19 05:31:32;;;;;;;1.27;0.80;;;0.60;99.90;;;;;;4908796;28;20278;-81
2021/03/19 05:33:55;;;;;;;2.65;1.40;;;0.60;99.90;;;;;;4901015;28;20099;-82
2021/03/19 05:36:21;;;;;;;2.92;1.20;;;0.60;99.90;;;;;;4899080;28;20164;-82
2021/03/19 05:38:46;;;;;;;2.00;0.88;;;;;;;;;;4909951;28;20096;-79
2021/03/19 05:41:10;;;;;;;5.03;1.60;;;0.50;99.90;;;;;;4911004;28;20092;-80
2021/03/19 05:43:37;;;;;;;3.42;1.63;;;0.60;99.90;;;;;;4907408;28;20119;-80
2021/03/19 05:46:05;;;;;;;3.17;1.10;;;0.70;99.90;;;;;;4909963;28;20086;-80
2021/03/19 05:48:38;;;;;;;2.78;1.00;;;1.70;99.90;;;;;;4909211;28;20116;-80
2021/03/19 05:51:01;;;;;;;2.35;1.40;;;0.70;99.90;;;;;;4909491;28;20096;-80
2021/03/19 05:53:39;;;;;;;3.60;1.23;;;0.70;99.90;;;;;;4908503;28;20091;-79
2021/03/19 05:56:12;;;;;;;2.95;1.35;;;0.70;99.90;;;;;;4904978;28;20566;-80
2021/03/19 05:58:34;;;;;;;2.03;1.13;;;0.70;99.90;;;;;;4896292;28;20090;-80
2021/03/19 06:00:58;;;;;;;4.18;1.52;;;0.70;99.90;;;;;;4902832;28;20092;-80
2021/03/19 06:03:22;;;;;;;4.40;1.30;;;0.70;99.90;;;;;;4896349;28;20101;-78
2021/03/19 06:06:00;;;;;;;3.47;1.30;;;0.60;99.90;;;;;;4909823;28;20157;-79
2021/03/19 06:08:30;;;;;;;2.10;1.00;;;0.60;99.90;;;;;;4907864;28;20098;-79
2021/03/19 06:11:06;;;;;;;1.40;1.00;;;0.60;99.90;;;;;;4908082;28;20083;-79
2021/03/19 06:13:44;;;;;;;5.20;1.10;;;0.60;99.90;;;;;;4907631;28;20451;-79
2021/03/19 06:16:32;;;;;;;1.92;1.17;;;0.70;99.90;;;;;;4909289;28;20085;-80
2021/03/19 06:18:58;;;;;;;3.63;1.20;;;0.70;99.90;;;;;;4896656;28;20119;-80
2021/03/19 06:21:27;;;;;;;3.60;1.58;;;0.80;99.90;;;;;;4901250;28;20701;-80
2021/03/19 06:24:08;;;;;;;2.97;1.30;;;0.90;99.90;;;;;;4908272;28;20092;-81
2021/03/19 06:26:35;;;;;;;1.65;1.10;;;1.00;99.90;;;;;;4908769;28;20133;-80
2021/03/19 06:29:13;;;;;;;2.45;1.35;;;1.10;99.90;;;;;;4905396;28;20094;-82
2021/03/19 06:31:39;;;;;;;5.38;1.55;;;1.20;99.90;;;;;;4907641;28;20445;-82
2021/03/19 06:34:12;;;;;;;5.30;1.70;;;1.20;99.90;;;;;;4907223;28;20088;-82
2021/03/19 06:36:50;;;;;;;2.75;1.38;;;1.20;99.90;;;;;;4907186;28;20094;-83
2021/03/19 06:39:20;;;;;;;5.40;1.65;;;2.10;99.90;;;;;;4906267;28;20174;-84
2021/03/19 06:41:44;;;;;;;6.55;1.55;;;1.10;99.90;;;;;;4907237;28;20121;-82
2021/03/19 06:44:15;;;;;;;7.00;1.77;;;;;;;;;;4903964;28;20117;-82
2021/03/19 06:46:44;;;;;;;2.85;1.13;;;1.10;99.90;;;;;;4896464;28;20191;-81
2021/03/19 06:49:09;;;;;;;8.23;1.27;;;1.10;99.90;;;;;;4908344;28;20093;-79
2021/03/19 06:51:36;;;;;;;13.70;2.63;;;1.20;99.90;;;;;;4900357;28;20107;-80
2021/03/19 06:54:02;;;;;;;5.45;1.52;;;1.20;99.90;;;;;;4897574;28;20168;-82
2021/03/19 06:56:25;;;;;;;5.55;1.73;;;1.20;99.90;;;;;;4906647;28;20165;-81
2021/03/19 06:58:50;;;;;;;7.25;2.28;;;1.30;99.90;;;;;;4907428;28;20558;-82
2021/03/19 07:01:30;;;;;;;12.30;1.73;;;1.30;99.90;;;;;;4897050;28;20094;-82
2021/03/19 07:04:14;;;;;;;9.48;2.15;;;1.40;99.90;;;;;;4906523;28;20095;-82
2021/03/19 07:06:50;;;;;;;7.47;1.50;;;1.40;99.90;;;;;;4862952;28;20215;-83
2021/03/19 07:09:21;;;;;;;5.28;1.30;;;1.30;99.90;;;;;;4907434;28;20167;-82
2021/03/19 07:12:17;;;;;;;9.43;1.58;;;1.30;99.90;;;;;;4904750;28;20091;-83
2021/03/19 07:15:02;;;;;;;4.68;1.15;;;1.30;99.90;;;;;;4905739;28;20132;-81
2021/03/19 07:17:57;;;;;;;7.35;1.75;;;1.30;99.90;;;;;;4905776;28;20094;-82
2021/03/19 07:20:46;;;;;;;12.98;1.80;;;1.30;99.90;;;;;;4906015;28;20084;-79
2021/03/19 07:23:18;;;;;;;6.43;1.55;;;1.40;99.90;;;;;;4875084;28;20149;-81
2021/03/19 07:26:06;;;;;;;5.35;2.05;;;1.40;99.90;;;;;;4904578;28;20101;-78
2021/03/19 07:28:52;;;;;;;8.10;2.05;;;1.40;99.90;;;;;;4899946;28;20523;-79
2021/03/19 07:32:03;;;;;;;7.05;1.98;;;1.30;99.90;;;;;;4887363;28;20558;-78
2021/03/19 07:34:58;;;;;;;8.90;1.77;;;1.40;99.90;;;;;;4843190;28;20115;-78
2021/03/19 07:38:01;;;;;;;17.53;2.73;;;1.40;99.90;;;;;;4898354;28;20491;-77
2021/03/19 07:40:51;;;;;;;10.43;2.15;;;1.50;99.90;;;;;;4888057;28;20194;-78
2021/03/19 07:43:54;;;;;;;5.05;2.10;;;1.60;99.90;;;;;;4890440;28;20113;-80
2021/03/19 07:46:30;;;;;;;8.73;2.33;;;1.70;99.90;;;;;;4880231;28;20085;-80
2021/03/19 07:49:15;;;;;;;7.72;2.45;;;1.70;99.90;;;;;;4906485;28;20167;-80
2021/03/19 07:51:51;;;;;;;8.25;2.53;;;2.90;99.90;;;;;;4902839;28;20080;-81
2021/03/19 07:54:21;;;;;;;6.68;2.53;;;1.60;99.90;;;;;;4904750;28;20080;-81
2021/03/19 07:56:59;;;;;;;8.13;2.58;;;1.70;99.90;;;;;;4904647;28;20089;-81
2021/03/19 07:59:35;;;;;;;8.50;2.08;;;1.60;99.90;;;;;;4904043;28;20191;-79
2021/03/19 08:02:41;;;;;;;9.43;2.35;;;1.70;99.90;;;;;;4903971;28;20184;-78
2021/03/19 08:05:18;;;;;;;7.53;1.93;;;1.70;99.90;;;;;;4906879;28;20171;-79
2021/03/19 08:07:54;;;;;;;6.72;1.92;;;1.70;99.90;;;;;;4853666;28;20478;-79
2021/03/19 08:10:54;;;;;;;5.97;1.38;;;1.80;99.90;;;;;;4843556;28;20187;-78
2021/03/19 08:13:36;;;;;;;7.30;2.20;;;1.90;99.90;;;;;;4853693;28;20168;-79
2021/03/19 08:16:24;;;;;;;3.83;1.70;;;1.90;99.90;;;;;;4853490;28;22164;-79
2021/03/19 08:22:20;;;;;;;9.95;1.95;;;2.00;99.90;;;;;;4855461;28;20174;-80
2021/03/19 08:38:18;;;;;;;3.13;1.25;;;2.10;99.90;;;;;;4845435;28;20519;-79
2021/03/19 08:41:22;;;;;;;4.15;1.30;;;1.90;99.90;;;;;;4848945;28;20091;-79
2021/03/19 08:47:29;;;;;;;5.63;1.20;;;1.70;99.90;;;;;;4842444;28;21722;-79
2021/03/19 08:50:44;;;;;;;5.45;1.00;;;1.70;99.90;;;;;;4847538;28;20176;-79
2021/03/19 08:53:35;;;;;;;6.35;1.65;;;1.70;99.90;;;;;;4855178;28;20089;-78
2021/03/19 08:56:32;;;;;;;5.43;1.70;;;1.70;99.90;;;;;;4856750;28;20186;-80
2021/03/19 08:58:58;;;;;;;9.95;1.30;;;1.70;99.90;;;;;;4843141;28;20114;-78
2021/03/19 09:02:20;;;;;;;6.43;1.48;;;1.60;99.90;;;;;;4842150;28;20435;-78
2021/03/19 09:12:26;;;;;;;2.63;1.00;;;1.80;99.90;;;;;;4831897;28;20096;-78
2021/03/19 09:29:18;;;;;;;1.80;0.63;;;2.20;99.90;;;;;;4839387;28;20122;-78
2021/03/19 09:43:09;;;;;;;4.65;0.68;;;2.90;99.90;;;;;;4858054;28;20091;-78
2021/03/19 09:52:35;;;;;;;3.10;0.63;;;2.70;99.90;;;;;;4846311;28;20093;-77
2021/03/19 10:23:21;;;;;;;2.63;0.45;;;2.80;99.90;;;;;;4844733;28;20451;-78
2021/03/19 10:29:54;;;;;;;0.77;0.40;;;2.90;99.90;;;;;;4845504;28;20079;-79
2021/03/19 10:36:18;;;;;;;3.22;0.60;;;2.80;99.90;;;;;;4843353;28;20098;-78
2021/03/19 10:53:00;;;;;;;3.95;0.50;;;2.10;99.90;;;;;;4854174;28;20097;-76
2021/03/19 10:55:43;;;;;;;2.63;0.60;;;2.20;99.90;;;;;;4827899;28;20506;-79
2021/03/19 11:05:17;;;;;;;2.13;0.43;;;2.40;99.90;;;;;;4848063;28;20144;-79
2021/03/19 11:10:55;;;;;;;3.40;0.45;;;3.30;99.90;;;;;;4842837;28;20093;-77
2021/03/19 11:13:41;;;;;;;3.55;0.70;;;2.90;99.90;;;;;;4859724;28;20123;-76
2021/03/19 11:16:35;;;;;;;2.28;0.50;;;2.60;99.90;;;;;;4850691;28;20087;-79
2021/03/19 11:19:29;;;;;;;2.10;0.40;;;2.20;99.90;;;;;;4855016;28;20486;-78
2021/03/19 11:22:04;;;;;;;1.15;0.43;;;2.10;99.90;;;;;;4882749;28;20095;-78
2021/03/19 11:24:30;;;;;;;1.98;0.63;;;2.40;99.90;;;;;;4906802;28;20090;-78
2021/03/19 11:27:13;;;;;;;4.22;0.43;;;2.50;99.90;;;;;;4904980;28;20086;-78
2021/03/19 11:29:38;;;;;;;1.73;0.47;;;2.50;99.90;;;;;;4904856;28;20083;-78
2021/03/19 11:32:26;;;;;;;3.53;0.50;;;2.60;99.90;;;;;;4905720;28;20090;-79
2021/03/19 11:34:52;;;;;;;4.97;0.70;;;3.30;99.90;;;;;;4906297;28;20779;-79
2021/03/19 11:37:36;;;;;;;1.50;0.47;;;3.10;99.90;;;;;;4904680;28;20090;-78
2021/03/19 11:40:03;;;;;;;4.65;0.40;;;2.90;99.90;;;;;;4900751;28;20191;-77
2021/03/19 11:42:28;;;;;;;2.90;0.30;;;2.80;99.90;;;;;;4896241;28;20526;-78
2021/03/19 11:44:52;;;;;;;;;;;2.50;99.90;;;;;;4907998;28;20108;-78
2021/03/19 11:47:21;;;;;;;4.13;0.43;;;2.30;99.90;;;;;;4903996;28;19962;-78
2021/03/19 11:49:44;;;;;;;2.25;0.65;;;2.10;99.90;;;;;;4906509;28;20550;-76
2021/03/19 11:52:10;;;;;;;4.40;0.32;;;1.80;99.90;;;;;;4906023;28;20088;-77
2021/03/19 11:54:34;;;;;;;2.88;0.70;;;1.80;99.90;;;;;;4903956;28;20087;-78
2021/03/19 11:56:57;;;;;;;2.25;0.40;;;1.80;99.90;;;;;;4905324;28;20087;-77
2021/03/19 11:59:20;;;;;;;4.10;0.70;;;2.10;99.90;;;;;;4906227;28;20094;-78
2021/03/19 12:01:44;;;;;;;2.47;0.57;;;2.30;99.90;;;;;;4903884;28;20088;-78
2021/03/19 12:04:07;;;;;;;4.10;0.45;;;2.60;99.90;;;;;;4905878;28;20181;-77
2021/03/19 12:06:33;;;;;;;5.63;0.40;;;3.30;99.90;;;;;;4904072;28;20815;-78
2021/03/19 12:08:57;;;;;;;2.60;0.80;;;3.80;99.90;;;;;;4906414;28;20082;-76
2021/03/19 12:11:24;;;;;;;0.60;0.38;;;3.10;99.90;;;;;;4905643;28;20083;-77
2021/03/19 12:13:47;;;;;;;1.13;0.30;;;2.70;99.90;;;;;;4902542;28;20092;-78
2021/03/19 12:16:10;;;;;;;3.47;0.60;;;2.50;99.90;;;;;;4905642;28;20211;-77
2021/03/19 12:18:33;;;;;;;3.40;0.68;;;2.60;99.90;;;;;;4906120;28;20169;-77
2021/03/19 12:20:58;;;;;;;4.22;0.50;;;2.60;99.90;;;;;;4904370;28;21892;-80
2021/03/19 12:23:22;;;;;;;4.15;0.40;;;2.30;99.90;;;;;;4904962;28;20101;-78
2021/03/19 12:25:45;;;;;;;5.32;1.17;;;2.20;99.90;;;;;;4894911;28;20841;-79
2021/03/19 12:28:11;;;;;;;3.05;0.30;;;2.00;99.90;;;;;;4906503;28;20089;-79
2021/03/19 12:30:34;;;;;;;1.85;0.40;;;1.80;99.90;;;;;;4901857;28;20557;-80
2021/03/19 12:32:58;;;;;;;1.45;0.30;;;;;;;;;;4905969;28;20084;-79
2021/03/19 12:35:24;;;;;;;4.70;0.45;;;1.20;99.90;;;;;;4906605;28;20084;-80
2021/03/19 12:37:47;;;;;;;5.75;0.40;;;1.20;99.90;;;;;;4902198;28;20098;-79
2021/03/19 12:40:12;;;;;;;1.35;0.52;;;1.60;99.90;;;;;;4896129;28;20113;-80
2021/03/19 12:42:35;;;;;;;1.83;0.57;;;2.20;99.90;;;;;;4902639;28;20082;-81
2021/03/19 12:44:59;;;;;;;1.63;0.40;;;2.70;99.90;;;;;;4894377;28;20083;-78
2021/03/19 12:47:22;;;;;;;1.00;0.30;;;2.80;99.90;;;;;;4902519;28;20103;-81
2021/03/19 12:49:45;;;;;;;1.00;0.45;;;2.50;99.90;;;;;;4904733;28;20472;-82
2021/03/19 12:52:08;;;;;;;6.00;0.65;;;2.20;99.90;;;;;;4904493;28;20101;-80
2021/03/19 12:54:31;;;;;;;3.75;0.47;;;2.20;99.90;;;;;;4905025;28;20122;-82
2021/03/19 12:56:54;;;;;;;4.18;0.38;;;;;;;;;;4903393;28;20523;-81
2021/03/19 12:59:17;;;;;;;1.75;0.40;;;2.30;99.90;;;;;;4903616;28;20094;-82
2021/03/19 13:01:41;;;;;;;3.83;0.50;;;2.60;99.90;;;;;;4905112;28;20503;-82
2021/03/19 13:04:04;;;;;;;2.05;0.50;;;2.90;99.90;;;;;;4906258;28;20556;-83
2021/03/19 13:06:27;;;;;;;7.47;0.40;;;2.90;99.90;;;;;;4904671;28;20091;-82
2021/03/19 13:08:51;;;;;;;1.10;0.50;;;2.80;99.90;;;;;;4893215;28;20091;-83
2021/03/19 13:11:14;;;;;;;0.73;0.25;;;2.50;99.90;;;;;;4904589;28;20082;-80
2021/03/19 13:13:39;;;;;;;6.90;0.60;;;;;;;;;;4905956;28;20111;-81
2021/03/19 13:16:02;;;;;;;0.87;0.20;;;2.40;99.90;;;;;;4907297;28;20498;-82
2021/03/19 13:18:26;;;;;;;6.82;0.60;;;2.20;99.90;;;;;;4889613;28;20512;-82
2021/03/19 13:20:49;;;;;;;0.75;0.28;;;2.30;99.90;;;;;;4907230;28;20154;-81
2021/03/19 13:23:14;;;;;;;2.45;0.28;;;2.30;99.90;;;;;;4901567;28;20083;-81
2021/03/19 13:25:41;;;;;;;3.65;0.45;;;2.30;99.90;;;;;;4905532;28;20098;-82
2021/03/19 13:28:05;;;;;;;6.43;0.40;;;1.80;99.90;;;;;;4894492;28;20080;-83
2021/03/19 13:30:31;;;;;;;4.33;0.33;;;1.60;99.90;;;;;;4907342;28;20529;-80
2021/03/19 13:32:56;;;;;;;1.48;0.28;;;1.30;99.90;;;;;;4906438;28;20088;-81
2021/03/19 13:35:24;;;;;;;2.05;0.75;;;1.20;99.90;;;;;;4907878;28;20085;-80
2021/03/19 13:37:48;;;;;;;1.25;0.30;;;1.20;99.90;;;;;;4905604;28;20091;-82
2021/03/19 13:40:12;;;;;;;8.18;0.80;;;1.60;99.90;;;;;;4910052;28;20559;-81
2021/03/19 13:42:35;;;;;;;2.15;0.30;;;2.10;99.90;;;;;;4907602;28;20148;-83
2021/03/19 13:44:58;;;;;;;1.50;0.45;;;2.50;99.90;;;;;;4906659;28;20538;-81
2021/03/19 13:47:21;;;;;;;1.00;0.35;;;2.70;99.90;;;;;;4881509;28;20119;-81
2021/03/19 13:49:47;;;;;;;3.00;0.60;;;2.70;99.90;;;;;;4912417;28;20090;-82
2021/03/19 13:52:11;;;;;;;5.20;0.63;;;2.50;99.90;;;;;;4898179;28;20587;-82
2021/03/19 13:54:34;;;;;;;2.42;0.40;;;1.90;99.90;;;;;;4908654;28;20137;-84
2021/03/19 13:57:02;;;;;;;1.42;0.28;;;2.00;99.90;;;;;;4907977;28;20106;-82
2021/03/19 13:59:26;;;;;;;2.40;0.40;;;2.40;99.90;;;;;;4908973;28;20504;-83
2021/03/19 14:01:49;;;;;;;3.63;0.20;;;2.70;99.90;;;;;;4909200;28;20096;-81
2021/03/19 14:04:14;;;;;;;2.67;0.85;;;;;;;;;;4909278;28;20095;-81
2021/03/19 14:06:39;;;;;;;1.25;0.40;;;2.40;99.90;;;;;;4905826;28;20111;-83
2021/03/19 14:09:04;;;;;;;1.80;0.30;;;2.00;99.90;;;;;;4907444;28;20142;-83
2021/03/19 14:11:27;;;;;;;1.02;0.38;;;1.70;99.90;;;;;;4907370;28;20273;-82
2021/03/19 14:13:50;;;;;;;2.53;0.43;;;1.60;99.90;;;;;;4906341;28;20095;-81
2021/03/19 14:16:14;;;;;;;4.18;0.35;;;1.90;99.90;;;;;;4907581;28;20093;-82
2021/03/19 14:18:37;;;;;;;1.05;0.30;;;1.80;99.90;;;;;;4905647;28;20544;-80
2021/03/19 14:21:00;;;;;;;2.58;0.40;;;1.80;99.90;;;;;;4905157;28;20669;-81
2021/03/19 14:23:25;;;;;;;5.47;0.50;;;2.10;99.90;;;;;;4906011;28;20129;-80
2021/03/19 14:25:51;;;;;;;4.47;0.35;;;2.40;99.90;;;;;;4905884;28;20087;-81
2021/03/19 14:28:24;;;;;;;1.88;0.20;;;2.60;99.90;;;;;;4900196;28;20079;-83
2021/03/19 14:30:47;;;;;;;1.60;0.30;;;2.50;99.90;;;;;;4905088;28;20083;-82
2021/03/19 14:33:10;;;;;;;4.43;0.60;;;2.10;99.90;;;;;;4904081;28;20095;-83
2021/03/19 14:35:33;;;;;;;2.03;0.20;;;2.00;99.90;;;;;;4907423;28;20115;-81
2021/03/19 14:37:58;;;;;;;1.92;0.30;;;2.20;99.90;;;;;;4902599;28;20600;-82
2021/03/19 14:40:25;;;;;;;2.25;0.47;;;1.90;99.90;;;;;;4904402;28;20089;-81
2021/03/19 14:42:50;;;;;;;7.13;0.40;;;;;;;;;;4906195;28;20095;-84
2021/03/19 14:45:15;;;;;;;0.40;0.20;;;1.20;99.90;;;;;;4904436;28;20087;-81
2021/03/19 14:47:37;;;;;;;3.25;0.57;;;0.90;99.90;;;;;;4897128;28;20566;-81
2021/03/19 14:50:00;;;;;;;0.75;0.20;;;0.80;99.90;;;;;;4904867;28;20462;-82
2021/03/19 14:52:23;;;;;;;1.60;0.50;;;;;;;;;;4902927;28;20117;-81
2021/03/19 14:54:46;;;;;;;2.53;0.90;;;0.70;99.90;;;;;;4906185;28;20104;-82
2021/03/19 14:57:09;;;;;;;3.83;0.52;;;0.90;99.90;;;;;;4897445;28;20085;-81
2021/03/19 14:59:33;;;;;;;2.85;0.38;;;;;;;;;;4903293;28;20099;-81
2021/03/19 15:01:56;;;;;;;3.00;0.50;;;1.70;99.90;;;;;;4903940;28;20093;-79
2021/03/19 15:04:19;;;;;;;6.30;0.63;;;1.90;99.90;;;;;;4894253;28;20092;-81